Wednesday, August 15, 2018, 7:09 AM EDT
Back to Local

KISP, Islip Long Island Mac Art

Location: Ronkonkoma, NY, United States Lat: 40.8
Local Time: 7:09 AM EDT (11:09 GMT) Lon: -73.1
Time Zone: US/Eastern Elev: 98 ft

Show me the last for .
Show Decoded

2018-08-15 05:56 METAR KISP 150956Z 26003KT 10SM FEW028 SCT130 20/20 A2984 RMK AO2 SLP104
                 T02000200 =
2018-08-15 04:56 METAR KISP 150856Z AUTO 25003KT 10SM CLR 21/20 A2983 RMK AO2 SLP100 T02060200
                 55004 =
2018-08-15 03:56 METAR KISP 150756Z AUTO 27004KT 10SM CLR 21/20 A2982 RMK AO2 SLP096 T02110200 =
2018-08-15 02:56 METAR KISP 150656Z AUTO 26007KT 10SM CLR 21/21 A2982 RMK AO2 SLP098 T02110206 =
2018-08-15 01:56 METAR KISP 150556Z AUTO 25006KT 10SM FEW120 22/20 A2984 RMK AO2 SLP103 T02170200
                 10233 20211 58002 =
2018-08-15 00:56 METAR KISP 150456Z AUTO 24005KT 10SM CLR 21/20 A2984 RMK AO2 SLP104 T02110200
                 402780206 =
2018-08-14 23:56 METAR KISP 150356Z 22008KT 10SM FEW040 SCT130 BKN250 22/19 A2985 RMK AO2 SLP106
                 LAST T02170194 =
2018-08-14 22:56 METAR KISP 150256Z 24008KT 10SM FEW040 SCT100 SCT130 BKN250 22/19 A2985 RMK AO2
                 SLP105 T02220194 50004 =
2018-08-14 21:56 METAR KISP 150156Z 22007KT 10SM FEW045 SCT095 BKN130 OVC250 23/21 A2985 RMK AO2
                 SLP108 T02280206 =
2018-08-14 20:56 METAR KISP 150056Z 22008KT 10SM FEW045 SCT110 BKN140 BKN250 23/20 A2984 RMK AO2
                 SLP104 T02280200 =
2018-08-14 19:56 METAR KISP 142356Z 22005KT 10SM FEW045 SCT075 BKN130 BKN250 22/19 A2984 RMK AO2
                 LTG DSNT NE AND SE SLP103 OCNL LTGICCG DSNT SE CB DSNT SE 60001 T02170189 10278
                 20217 53002 =
2018-08-14 19:28 METAR KISP 142328Z 24007KT 10SM FEW022 SCT045 BKN075 BKN130 BKN250 23/19 A2984
                 RMK AO2 LTG DSNT SE AND S CB DSNT NE T02280189 =
2018-08-14 18:56 METAR KISP 142256Z 00000KT 10SM SCT018 BKN026CB BKN044 OVC250 23/20 A2983 RMK
                 AO2 LTG DSNT S RAB33E48 TSE51 SLP100 CB NE MOV NE P0001 T02280200 =
2018-08-14 18:37 METAR KISP 142237Z 25003KT 6SM TSRA BKN018 BKN026CB OVC044 23/19 A2981 RMK AO2
                 LTG DSNT S RAB33 OCNL LTGICCG N-NE TS N-NE MOV NE P0000 T02330194 =
2018-08-14 17:56 METAR KISP 142156Z 21010KT 10SM TS FEW010 FEW020 BKN033CB BKN250 25/22 A2983 RMK
                 AO2 LTG DSNT W TSB41 SLP102 OCNL LTGICCG W-N TS W-N MOV NE T02500217 =
2018-08-14 17:41 METAR KISP 142141Z 20012KT 10SM TS FEW023 SCT028CB BKN250 26/21 A2983 RMK AO2
                 LTG DSNT W TSB41 OCNL LTGICCG VC W-NW TS VC W-NW MOV NE T02560211 =
2018-08-14 16:56 METAR KISP 142056Z 19011KT 10SM SCT023 BKN028 BKN036 26/22 A2983 RMK AO2 LTG
                 DSNT W AND NW SLP100 T02610217 55010 =
2018-08-14 15:56 METAR KISP 141956Z 19013KT 10SM SCT025 26/21 A2983 RMK AO2 SLP099 SCT V BKN
                 T02610206 =
2018-08-14 15:23 METAR KISP 141923Z 23012KT 10SM SCT022 SCT250 27/21 A2984 RMK AO2 T02720206 =
2018-08-14 14:56 METAR KISP 141856Z 22012KT 10SM BKN022 BKN250 28/22 A2985 RMK AO2 SLP106 BKN022
                 V SCT T02780217 =
2018-08-14 14:36 METAR KISP 141836Z 20011KT 10SM BKN024 27/21 A2985 RMK AO2 T02720211 =
2018-08-14 13:56 METAR KISP 141756Z 18011G17KT 10SM SCT026 SCT035 SCT250 27/20 A2986 RMK AO2
                 SLP110 T02720200 10278 20250 56011 =
2018-08-14 12:56 METAR KISP 141656Z 21009KT 10SM FEW026 FEW035 SCT250 27/20 A2987 RMK AO2 SLP112
                 T02720200 =
2018-08-14 12:30 METAR KISP 141630Z 20012KT 10SM SCT026 27/21 A2987 RMK AO2 T02720211 =
2018-08-14 11:56 METAR KISP 141556Z 20010KT 10SM BKN026 BKN100 27/22 A2988 RMK AO2 SLP117
                 T02670217 =
2018-08-14 10:56 METAR KISP 141456Z 23009KT 10SM FEW025 BKN050 26/21 A2989 RMK AO2 SLP121
                 T02610206 53002 =
2018-08-14 09:56 METAR KISP 141356Z 24008KT 10SM FEW009 FEW035 FEW150 SCT250 27/22 A2988 RMK AO2
                 SLP116 T02670217 =
2018-08-14 08:56 METAR KISP 141256Z 19007KT 10SM FEW009 FEW030 SCT150 SCT250 25/22 A2988 RMK AO2
                 SLP117 T02500217 =
2018-08-14 07:56 METAR KISP 141156Z 17006KT 9SM SCT007 SCT035 BKN150 BKN250 25/24 A2989 RMK AO2
                 SLP119 70082 T02500244 10250 20206 51006 =

Support USWX by starting your Amazon purchase here.